sensor_id;sensor_type;location;lat;lon;timestamp;pressure;altitude;pressure_sealevel;temperature;humidity
39699;BME280;25372;50.582;12.250;2023-03-03T00:01:48;100404.06;;;-1.35;100.00
39699;BME280;25372;50.582;12.250;2023-03-03T00:12:19;100408.22;;;-1.33;100.00
39699;BME280;25372;50.582;12.250;2023-03-03T00:22:42;100418.53;;;-1.31;100.00
39699;BME280;25372;50.582;12.250;2023-03-03T00:33:11;100427.16;;;-1.45;100.00
39699;BME280;25372;50.582;12.250;2023-03-03T00:43:39;100436.16;;;-1.51;100.00
39699;BME280;25372;50.582;12.250;2023-03-03T00:54:00;100434.75;;;-1.56;100.00
39699;BME280;25372;50.582;12.250;2023-03-03T01:04:22;100439.03;;;-1.55;100.00
39699;BME280;25372;50.582;12.250;2023-03-03T01:14:43;100439.66;;;-1.66;100.00
39699;BME280;25372;50.582;12.250;2023-03-03T01:25:08;100453.06;;;-1.88;100.00
39699;BME280;25372;50.582;12.250;2023-03-03T01:35:31;100445.59;;;-2.09;100.00
39699;BME280;25372;50.582;12.250;2023-03-03T01:56:53;100438.88;;;-2.13;100.00
39699;BME280;25372;50.582;12.250;2023-03-03T02:07:17;100423.34;;;-2.29;100.00
39699;BME280;25372;50.582;12.250;2023-03-03T02:17:40;100416.50;;;-2.16;100.00
39699;BME280;25372;50.582;12.250;2023-03-03T02:28:03;100427.16;;;-2.20;100.00
39699;BME280;25372;50.582;12.250;2023-03-03T02:38:26;100418.91;;;-2.27;100.00
39699;BME280;25372;50.582;12.250;2023-03-03T02:48:49;100427.34;;;-2.23;100.00
39699;BME280;25372;50.582;12.250;2023-03-03T02:59:10;100409.53;;;-2.30;100.00
39699;BME280;25372;50.582;12.250;2023-03-03T03:09:38;100441.13;;;-2.37;100.00
39699;BME280;25372;50.582;12.250;2023-03-03T03:19:58;100432.13;;;-2.32;100.00
39699;BME280;25372;50.582;12.250;2023-03-03T03:30:21;100443.19;;;-2.28;100.00
39699;BME280;25372;50.582;12.250;2023-03-03T03:40:43;100434.72;;;-2.32;100.00
39699;BME280;25372;50.582;12.250;2023-03-03T03:51:06;100416.53;;;-2.32;100.00
39699;BME280;25372;50.582;12.250;2023-03-03T04:01:28;100447.88;;;-2.35;100.00
39699;BME280;25372;50.582;12.250;2023-03-03T04:11:51;100457.25;;;-2.32;100.00
39699;BME280;25372;50.582;12.250;2023-03-03T04:22:13;100472.09;;;-2.34;100.00
39699;BME280;25372;50.582;12.250;2023-03-03T04:32:36;100477.94;;;-2.47;100.00
39699;BME280;25372;50.582;12.250;2023-03-03T04:42:59;100472.19;;;-2.36;100.00
39699;BME280;25372;50.582;12.250;2023-03-03T04:53:22;100487.25;;;-2.26;100.00
39699;BME280;25372;50.582;12.250;2023-03-03T05:03:43;100478.22;;;-2.35;100.00
39699;BME280;25372;50.582;12.250;2023-03-03T05:14:06;100493.59;;;-2.32;100.00
39699;BME280;25372;50.582;12.250;2023-03-03T05:24:27;100480.63;;;-2.32;100.00
39699;BME280;25372;50.582;12.250;2023-03-03T05:34:49;100488.31;;;-2.31;100.00
39699;BME280;25372;50.582;12.250;2023-03-03T05:45:11;100483.63;;;-2.08;100.00
39699;BME280;25372;50.582;12.250;2023-03-03T05:55:33;100478.16;;;-2.03;100.00
39699;BME280;25372;50.582;12.250;2023-03-03T06:05:54;100481.41;;;-2.00;100.00
39699;BME280;25372;50.582;12.250;2023-03-03T06:16:16;100469.94;;;-1.96;100.00
39699;BME280;25372;50.582;12.250;2023-03-03T06:26:37;100484.56;;;-1.79;100.00
39699;BME280;25372;50.582;12.250;2023-03-03T06:36:59;100490.50;;;-1.77;100.00
39699;BME280;25372;50.582;12.250;2023-03-03T06:47:20;100508.41;;;-1.72;100.00
39699;BME280;25372;50.582;12.250;2023-03-03T06:57:42;100496.47;;;-1.74;100.00
39699;BME280;25372;50.582;12.250;2023-03-03T07:08:05;100521.25;;;-1.69;100.00
39699;BME280;25372;50.582;12.250;2023-03-03T07:18:34;100524.78;;;-1.70;100.00
39699;BME280;25372;50.582;12.250;2023-03-03T07:28:58;100465.81;;;-2.00;100.00
39699;BME280;25372;50.582;12.250;2023-03-03T07:39:30;100544.94;;;-1.59;100.00
39699;BME280;25372;50.582;12.250;2023-03-03T07:49:54;100570.50;;;-1.82;100.00
39699;BME280;25372;50.582;12.250;2023-03-03T08:11:10;100549.44;;;-1.47;100.00
39699;BME280;25372;50.582;12.250;2023-03-03T08:21:32;100547.84;;;-1.49;100.00
39699;BME280;25372;50.582;12.250;2023-03-03T08:31:55;100545.25;;;-1.04;100.00
39699;BME280;25372;50.582;12.250;2023-03-03T08:42:15;100544.88;;;-1.13;100.00
39699;BME280;25372;50.582;12.250;2023-03-03T08:52:38;100554.94;;;-0.78;100.00
39699;BME280;25372;50.582;12.250;2023-03-03T09:02:59;100553.44;;;-0.96;100.00
39699;BME280;25372;50.582;12.250;2023-03-03T09:13:21;100563.38;;;-1.03;100.00
39699;BME280;25372;50.582;12.250;2023-03-03T09:23:47;100571.09;;;-1.01;100.00
39699;BME280;25372;50.582;12.250;2023-03-03T09:34:18;100569.81;;;-0.94;100.00
39699;BME280;25372;50.582;12.250;2023-03-03T09:45:00;100583.28;;;-1.02;100.00
39699;BME280;25372;50.582;12.250;2023-03-03T09:55:36;100588.38;;;-0.86;100.00
39699;BME280;25372;50.582;12.250;2023-03-03T10:06:03;100588.09;;;-0.96;100.00
39699;BME280;25372;50.582;12.250;2023-03-03T10:16:43;100586.66;;;-0.57;100.00
39699;BME280;25372;50.582;12.250;2023-03-03T10:27:16;100594.81;;;-0.63;100.00
39699;BME280;25372;50.582;12.250;2023-03-03T10:37:51;100592.78;;;-0.58;100.00
39699;BME280;25372;50.582;12.250;2023-03-03T10:48:25;100593.50;;;-0.56;100.00
39699;BME280;25372;50.582;12.250;2023-03-03T10:58:59;100590.78;;;-0.25;100.00
39699;BME280;25372;50.582;12.250;2023-03-03T11:09:32;100592.84;;;-0.16;100.00
39699;BME280;25372;50.582;12.250;2023-03-03T11:20:02;100585.97;;;-0.31;100.00
39699;BME280;25372;50.582;12.250;2023-03-03T11:30:34;100582.81;;;-0.37;100.00
39699;BME280;25372;50.582;12.250;2023-03-03T11:41:05;100566.03;;;-0.18;100.00
39699;BME280;25372;50.582;12.250;2023-03-03T11:51:35;100572.22;;;-0.33;100.00
39699;BME280;25372;50.582;12.250;2023-03-03T12:02:14;100560.59;;;-0.01;100.00
39699;BME280;25372;50.582;12.250;2023-03-03T12:12:41;100556.81;;;-0.09;100.00
39699;BME280;25372;50.582;12.250;2023-03-03T12:23:11;100553.47;;;-0.11;100.00
39699;BME280;25372;50.582;12.250;2023-03-03T12:33:49;100543.00;;;0.43;100.00
39699;BME280;25372;50.582;12.250;2023-03-03T12:44:17;100529.47;;;0.11;100.00
39699;BME280;25372;50.582;12.250;2023-03-03T12:54:51;100519.16;;;0.62;100.00
39699;BME280;25372;50.582;12.250;2023-03-03T13:05:21;100510.59;;;0.60;100.00
39699;BME280;25372;50.582;12.250;2023-03-03T13:15:52;100508.38;;;0.41;100.00
39699;BME280;25372;50.582;12.250;2023-03-03T13:26:21;100506.56;;;0.29;100.00
39699;BME280;25372;50.582;12.250;2023-03-03T13:36:49;100489.84;;;0.72;99.24
39699;BME280;25372;50.582;12.250;2023-03-03T13:47:18;100490.25;;;0.78;100.00
39699;BME280;25372;50.582;12.250;2023-03-03T13:57:44;100491.09;;;0.53;100.00
39699;BME280;25372;50.582;12.250;2023-03-03T14:08:19;100464.56;;;0.59;100.00
39699;BME280;25372;50.582;12.250;2023-03-03T14:18:51;100473.03;;;0.50;100.00
39699;BME280;25372;50.582;12.250;2023-03-03T14:29:29;100464.38;;;0.37;100.00
39699;BME280;25372;50.582;12.250;2023-03-03T14:40:00;100459.16;;;0.75;100.00
39699;BME280;25372;50.582;12.250;2023-03-03T14:50:34;100454.25;;;0.71;97.75
39699;BME280;25372;50.582;12.250;2023-03-03T15:01:13;100442.53;;;0.38;100.00
39699;BME280;25372;50.582;12.250;2023-03-03T15:11:39;100433.69;;;0.40;100.00
39699;BME280;25372;50.582;12.250;2023-03-03T15:22:03;100448.38;;;0.28;99.79
39699;BME280;25372;50.582;12.250;2023-03-03T15:32:32;100448.13;;;-0.07;100.00
39699;BME280;25372;50.582;12.250;2023-03-03T15:43:02;100451.91;;;-0.26;100.00
39699;BME280;25372;50.582;12.250;2023-03-03T15:53:41;100433.88;;;-0.29;100.00
39699;BME280;25372;50.582;12.250;2023-03-03T16:04:12;100452.09;;;-0.29;100.00
39699;BME280;25372;50.582;12.250;2023-03-03T16:14:46;100444.84;;;-0.51;100.00
39699;BME280;25372;50.582;12.250;2023-03-03T16:25:29;100454.31;;;-0.64;100.00
39699;BME280;25372;50.582;12.250;2023-03-03T16:35:59;100446.97;;;-0.58;100.00
39699;BME280;25372;50.582;12.250;2023-03-03T16:46:30;100454.19;;;-0.76;100.00
39699;BME280;25372;50.582;12.250;2023-03-03T16:56:59;100452.94;;;-0.70;100.00
39699;BME280;25372;50.582;12.250;2023-03-03T17:07:36;100458.53;;;-0.76;100.00
39699;BME280;25372;50.582;12.250;2023-03-03T17:18:10;100460.50;;;-0.80;100.00
39699;BME280;25372;50.582;12.250;2023-03-03T17:28:39;100455.94;;;-0.91;100.00
39699;BME280;25372;50.582;12.250;2023-03-03T17:39:24;100457.81;;;-0.78;100.00
39699;BME280;25372;50.582;12.250;2023-03-03T17:49:59;100472.84;;;-0.83;100.00
39699;BME280;25372;50.582;12.250;2023-03-03T18:00:32;100467.19;;;-0.76;100.00
39699;BME280;25372;50.582;12.250;2023-03-03T18:11:13;100467.00;;;-0.73;100.00
39699;BME280;25372;50.582;12.250;2023-03-03T18:21:42;100466.91;;;-0.71;100.00
39699;BME280;25372;50.582;12.250;2023-03-03T18:32:19;100475.16;;;-0.79;100.00
39699;BME280;25372;50.582;12.250;2023-03-03T18:42:43;100479.91;;;-0.71;100.00
39699;BME280;25372;50.582;12.250;2023-03-03T18:53:07;100482.53;;;-0.71;100.00
39699;BME280;25372;50.582;12.250;2023-03-03T19:03:35;100472.84;;;-0.69;100.00
39699;BME280;25372;50.582;12.250;2023-03-03T19:14:13;100482.97;;;-0.64;100.00
39699;BME280;25372;50.582;12.250;2023-03-03T19:24:36;100486.22;;;-0.61;100.00
39699;BME280;25372;50.582;12.250;2023-03-03T19:35:07;100479.13;;;-0.59;100.00
39699;BME280;25372;50.582;12.250;2023-03-03T19:56:27;100473.75;;;-0.56;100.00
39699;BME280;25372;50.582;12.250;2023-03-03T20:06:58;100475.22;;;-0.51;100.00
39699;BME280;25372;50.582;12.250;2023-03-03T20:17:37;100476.50;;;-0.44;100.00
39699;BME280;25372;50.582;12.250;2023-03-03T20:28:05;100458.38;;;-0.46;100.00
39699;BME280;25372;50.582;12.250;2023-03-03T20:38:40;100459.75;;;-0.40;100.00
39699;BME280;25372;50.582;12.250;2023-03-03T20:49:20;100448.88;;;-0.47;100.00
39699;BME280;25372;50.582;12.250;2023-03-03T20:59:48;100446.53;;;-0.37;100.00
39699;BME280;25372;50.582;12.250;2023-03-03T21:10:17;100437.16;;;-0.40;100.00
39699;BME280;25372;50.582;12.250;2023-03-03T21:20:42;100430.50;;;-0.31;100.00
39699;BME280;25372;50.582;12.250;2023-03-03T21:31:10;100414.25;;;-0.34;100.00
39699;BME280;25372;50.582;12.250;2023-03-03T21:41:49;100412.28;;;-0.31;100.00
39699;BME280;25372;50.582;12.250;2023-03-03T21:52:13;100414.50;;;-0.25;100.00
39699;BME280;25372;50.582;12.250;2023-03-03T22:02:35;100413.84;;;-0.28;100.00
39699;BME280;25372;50.582;12.250;2023-03-03T22:12:57;100408.34;;;-0.24;100.00
39699;BME280;25372;50.582;12.250;2023-03-03T22:23:18;100404.81;;;-0.23;100.00
39699;BME280;25372;50.582;12.250;2023-03-03T22:33:40;100399.72;;;-0.24;100.00
39699;BME280;25372;50.582;12.250;2023-03-03T22:44:00;100383.78;;;-0.20;100.00
39699;BME280;25372;50.582;12.250;2023-03-03T22:54:22;100383.88;;;-0.21;100.00
39699;BME280;25372;50.582;12.250;2023-03-03T23:04:43;100367.41;;;-0.22;100.00
39699;BME280;25372;50.582;12.250;2023-03-03T23:15:07;100366.91;;;-0.14;100.00
39699;BME280;25372;50.582;12.250;2023-03-03T23:25:31;100339.47;;;-0.20;100.00
39699;BME280;25372;50.582;12.250;2023-03-03T23:35:54;100340.19;;;-0.18;100.00
39699;BME280;25372;50.582;12.250;2023-03-03T23:46:14;100336.97;;;-0.21;100.00
39699;BME280;25372;50.582;12.250;2023-03-03T23:56:36;100333.75;;;-0.12;100.00
